Time;durP1;ratioP1;P1;durP2;ratioP2;P2;SDS_P1;SDS_P2;PMS_P1;PMS_P2;Temp;Humidity;BMP_temperature;BMP_pressure;BME280_temperature;BME280_humidity;BME280_pressure;Samples;Min_cycle;Max_cycle;Signal;HPM_P1;HPM_P2
2023/04/15 00:01:26;;;;;;;1999.90;999.90;;;6.50;99.90;;;;;;4868219;29;20640;-74
2023/04/15 00:03:53;;;;;;;1999.90;999.90;;;6.50;99.90;;;;;;4861731;29;20881;-78
2023/04/15 00:06:22;;;;;;;1999.90;999.90;;;6.50;99.90;;;;;;4885354;29;20068;-74
2023/04/15 00:08:54;;;;;;;1999.90;999.90;;;;;;;;;;4858981;29;20106;-77
2023/04/15 00:11:20;;;;;;;1922.95;585.67;;;6.40;99.90;;;;;;4838957;29;20105;-74
2023/04/15 00:13:45;;;;;;;1999.90;999.90;;;6.70;99.90;;;;;;4873806;29;20057;-74
2023/04/15 00:16:11;;;;;;;1999.90;810.97;;;6.60;99.90;;;;;;4875717;29;20487;-75
2023/04/15 00:18:37;;;;;;;1999.90;590.10;;;6.30;99.90;;;;;;4846942;29;20059;-74
2023/04/15 00:21:04;;;;;;;1999.90;999.90;;;6.30;99.90;;;;;;4861187;29;20083;-74
2023/04/15 00:23:30;;;;;;;1999.90;388.55;;;6.30;99.90;;;;;;4872198;29;20092;-74
2023/04/15 00:25:56;;;;;;;1832.53;779.55;;;8.00;99.90;;;;;;4856090;29;20076;-74
2023/04/15 00:28:21;;;;;;;1999.90;999.90;;;6.10;99.90;;;;;;4875198;29;20505;-75
2023/04/15 00:30:47;;;;;;;1999.90;999.90;;;9.10;99.90;;;;;;4842052;29;20061;-75
2023/04/15 00:33:13;;;;;;;1999.90;999.90;;;6.30;1.00;;;;;;4853277;29;20160;-74
2023/04/15 00:35:39;;;;;;;1999.90;999.90;;;6.20;1.00;;;;;;4860621;29;20152;-75
2023/04/15 00:38:14;;;;;;;1999.90;999.90;;;6.20;1.00;;;;;;4858519;29;20044;-76
2023/04/15 00:40:40;;;;;;;1999.90;398.63;;;6.20;1.00;;;;;;4845373;29;20121;-75
2023/04/15 00:43:05;;;;;;;1999.90;999.90;;;6.20;1.00;;;;;;4857878;29;20084;-78
2023/04/15 00:45:32;;;;;;;1999.90;999.90;;;6.20;1.00;;;;;;4845156;29;20503;-74
2023/04/15 00:47:58;;;;;;;1999.90;999.90;;;6.20;1.00;;;;;;4876766;29;20053;-79
2023/04/15 00:50:24;;;;;;;1999.90;802.83;;;;;;;;;;4872986;29;20125;-74
2023/04/15 00:52:50;;;;;;;1999.90;591.50;;;6.20;1.00;;;;;;4860949;29;20084;-74
2023/04/15 00:55:16;;;;;;;1999.90;805.65;;;6.70;1.00;;;;;;4842852;29;20107;-74
2023/04/15 00:57:43;;;;;;;1911.35;373.80;;;6.20;1.00;;;;;;4846273;29;20057;-75
2023/04/15 01:00:10;;;;;;;1999.90;999.90;;;6.00;1.00;;;;;;4855773;29;20076;-75
2023/04/15 01:02:36;;;;;;;1999.90;999.90;;;6.00;1.00;;;;;;4873271;29;20054;-75
2023/04/15 01:05:03;;;;;;;1784.10;356.65;;;6.10;1.00;;;;;;4870119;29;20071;-75
2023/04/15 01:07:29;;;;;;;1999.90;628.05;;;4.80;1.00;;;;;;4874492;29;20053;-74
2023/04/15 01:09:55;;;;;;;1999.90;999.90;;;6.40;1.00;;;;;;4844461;29;20056;-75
2023/04/15 01:12:23;;;;;;;1999.90;999.90;;;6.00;1.00;;;;;;4860773;29;20057;-75
2023/04/15 01:14:50;;;;;;;1940.28;784.03;;;7.90;1.00;;;;;;4840061;29;20055;-77
2023/04/15 01:17:16;;;;;;;1999.90;999.90;;;5.90;1.00;;;;;;4850565;29;20041;-75
2023/04/15 01:19:42;;;;;;;1999.90;999.90;;;5.90;1.00;;;;;;4855384;29;20135;-75
2023/04/15 01:22:08;;;;;;;1999.90;999.90;;;5.90;1.00;;;;;;4842813;29;20057;-75
2023/04/15 01:24:35;;;;;;;1999.90;999.90;;;5.80;1.00;;;;;;4859811;29;20494;-75
2023/04/15 01:27:02;;;;;;;1999.90;188.05;;;5.80;1.00;;;;;;4871859;29;20097;-80
2023/04/15 01:29:28;;;;;;;1999.90;999.90;;;7.50;1.00;;;;;;4873570;29;20083;-75
2023/04/15 01:31:55;;;;;;;1906.68;579.45;;;5.90;1.00;;;;;;4841630;29;20790;-81
2023/04/15 01:34:21;;;;;;;1999.90;999.90;;;6.80;1.00;;;;;;4869659;29;20138;-76
2023/04/15 01:36:47;;;;;;;1999.90;999.90;;;;;;;;;;4871144;29;20132;-74
2023/04/15 01:39:14;;;;;;;1999.90;999.90;;;5.80;1.00;;;;;;4869560;29;20135;-75
2023/04/15 01:41:41;;;;;;;1999.90;608.20;;;;;;;;;;4844221;29;20512;-75
2023/04/15 01:44:07;;;;;;;1999.90;999.90;;;6.30;1.00;;;;;;4857465;29;20049;-74
2023/04/15 01:46:33;;;;;;;1999.90;999.90;;;;;;;;;;4855591;29;20364;-74
2023/04/15 01:48:59;;;;;;;1999.90;999.90;;;5.60;1.00;;;;;;4858783;29;20056;-75
2023/04/15 01:51:26;;;;;;;1999.90;999.90;;;5.50;1.00;;;;;;4874053;29;20056;-74
2023/04/15 01:53:52;;;;;;;1999.90;999.90;;;5.70;1.00;;;;;;4874357;29;20064;-74
2023/04/15 01:56:17;;;;;;;1999.90;999.90;;;6.80;1.00;;;;;;4873623;29;20072;-74
2023/04/15 01:58:43;;;;;;;1999.90;999.90;;;5.50;19.50;;;;;;4843890;29;20071;-75
2023/04/15 02:01:10;;;;;;;1999.90;999.90;;;6.20;9.50;;;;;;4858668;29;20048;-75
2023/04/15 02:03:36;;;;;;;1999.90;999.90;;;5.50;1.00;;;;;;4873484;29;20092;-74
2023/04/15 02:06:03;;;;;;;1999.90;999.90;;;5.30;22.20;;;;;;4872727;29;20064;-74
2023/04/15 02:08:29;;;;;;;1999.90;999.90;;;5.40;5.50;;;;;;4858782;29;20044;-74
2023/04/15 02:10:55;;;;;;;1999.90;999.90;;;7.10;25.80;;;;;;4878110;29;20060;-74
2023/04/15 02:13:21;;;;;;;1999.90;999.90;;;6.50;41.10;;;;;;4857722;29;20046;-74
2023/04/15 02:15:47;;;;;;;1999.90;999.90;;;6.80;47.60;;;;;;4845235;29;20049;-76
2023/04/15 02:18:15;;;;;;;1999.90;999.90;;;6.20;70.30;;;;;;4892707;29;20081;-78
2023/04/15 02:20:42;;;;;;;1999.90;999.90;;;5.70;46.70;;;;;;4863284;29;20049;-74
2023/04/15 02:23:08;;;;;;;1999.90;999.90;;;5.10;32.60;;;;;;4860814;29;20057;-80
2023/04/15 02:25:33;;;;;;;1999.90;999.90;;;6.80;66.70;;;;;;4849089;29;20080;-75
2023/04/15 02:28:00;;;;;;;1999.90;999.90;;;;;;;;;;4877434;29;20402;-75
2023/04/15 02:30:26;;;;;;;1999.90;999.90;;;4.90;99.90;;;;;;4860078;29;20065;-74
2023/04/15 02:32:51;;;;;;;1999.90;999.90;;;5.40;99.90;;;;;;4864408;29;20061;-75
2023/04/15 02:35:20;;;;;;;1999.90;999.90;;;4.70;99.90;;;;;;4863214;29;20136;-74
2023/04/15 02:37:46;;;;;;;1999.90;999.90;;;5.00;99.90;;;;;;4876884;29;20061;-75
2023/04/15 02:40:12;;;;;;;1999.90;999.90;;;5.80;99.90;;;;;;4862482;29;20067;-75
2023/04/15 02:42:39;;;;;;;1999.90;999.90;;;4.90;99.90;;;;;;4848805;29;20057;-74
2023/04/15 02:45:06;;;;;;;1999.90;999.90;;;4.90;99.90;;;;;;4863717;29;20048;-75
2023/04/15 02:47:32;;;;;;;1999.90;999.90;;;;;;;;;;4877929;29;20049;-73
2023/04/15 02:49:59;;;;;;;1999.90;999.90;;;;;;;;;;4876321;29;20053;-73
2023/04/15 02:52:25;;;;;;;1999.90;999.90;;;4.70;99.90;;;;;;4877006;29;20056;-73
2023/04/15 02:54:52;;;;;;;1999.90;999.90;;;4.70;99.90;;;;;;4855309;29;20061;-75
2023/04/15 02:57:17;;;;;;;1999.90;999.90;;;4.10;99.90;;;;;;4861510;29;20108;-75
2023/04/15 02:59:43;;;;;;;1999.90;999.90;;;4.70;99.90;;;;;;4877396;29;20503;-75
2023/04/15 03:02:09;;;;;;;1999.90;999.90;;;4.60;99.90;;;;;;4878900;29;20057;-74
2023/04/15 03:04:34;;;;;;;1999.90;999.90;;;4.60;99.90;;;;;;4876821;29;20127;-74
2023/04/15 03:07:01;;;;;;;1999.90;999.90;;;4.50;99.90;;;;;;4877696;29;20049;-75
2023/04/15 03:09:26;;;;;;;1999.90;999.90;;;4.30;99.90;;;;;;4874504;29;20461;-75
2023/04/15 03:11:53;;;;;;;1999.90;999.90;;;6.00;99.90;;;;;;4878718;29;20128;-75
2023/04/15 03:14:19;;;;;;;1999.90;999.90;;;4.40;99.90;;;;;;4846305;29;20085;-75
2023/04/15 03:16:45;;;;;;;1999.90;999.90;;;4.40;99.90;;;;;;4878427;29;20215;-76
2023/04/15 03:19:11;;;;;;;1999.90;999.90;;;4.30;99.90;;;;;;4876706;29;20474;-75
2023/04/15 03:21:36;;;;;;;1999.90;999.90;;;4.60;99.90;;;;;;4877711;29;20502;-79
2023/04/15 03:24:02;;;;;;;1999.90;999.90;;;6.80;99.90;;;;;;4863643;29;20144;-74
2023/04/15 03:26:29;;;;;;;1999.90;999.90;;;;;;;;;;4862389;29;20394;-74
2023/04/15 03:28:55;;;;;;;1999.90;999.90;;;;;;;;;;4862042;29;20498;-74
2023/04/15 03:31:21;;;;;;;1999.90;999.90;;;;;;;;;;4857057;29;20049;-76
2023/04/15 03:33:47;;;;;;;1999.90;999.90;;;;;;;;;;4879350;29;20200;-74
2023/04/15 03:36:13;;;;;;;1999.90;999.90;;;4.20;99.90;;;;;;4877422;29;20045;-75
2023/04/15 03:38:39;;;;;;;1999.90;999.90;;;5.40;99.90;;;;;;4862176;29;20434;-74
2023/04/15 03:41:05;;;;;;;1999.90;999.90;;;5.70;99.90;;;;;;4875712;29;20079;-74
2023/04/15 03:43:30;;;;;;;1999.90;999.90;;;4.30;99.90;;;;;;4846389;29;20086;-75
2023/04/15 03:45:56;;;;;;;1999.90;999.90;;;4.20;99.90;;;;;;4877770;29;20064;-75
2023/04/15 03:48:22;;;;;;;1999.90;999.90;;;4.10;99.90;;;;;;4862634;29;20755;-74
2023/04/15 03:50:48;;;;;;;1999.90;999.90;;;6.90;99.90;;;;;;4876285;29;20092;-74
2023/04/15 03:53:14;;;;;;;1999.90;999.90;;;4.20;99.90;;;;;;4871623;29;20092;-74
2023/04/15 03:55:40;;;;;;;1999.90;999.90;;;5.90;99.90;;;;;;4847249;29;20164;-74
2023/04/15 03:58:06;;;;;;;1999.90;999.90;;;5.20;1.00;;;;;;4878973;29;20431;-76
2023/04/15 04:00:32;;;;;;;1999.90;999.90;;;;;;;;;;4874936;29;20053;-75
2023/04/15 04:02:58;;;;;;;1999.90;999.90;;;4.20;1.00;;;;;;4862016;29;20120;-74
2023/04/15 04:05:23;;;;;;;1999.90;999.90;;;5.40;99.90;;;;;;4882422;29;20498;-74
2023/04/15 04:07:49;;;;;;;1999.90;999.90;;;4.20;99.90;;;;;;4873181;29;20045;-75
2023/04/15 04:10:15;;;;;;;1999.90;999.90;;;5.20;1.00;;;;;;4860159;29;20494;-75
2023/04/15 04:12:41;;;;;;;1999.90;999.90;;;5.60;1.00;;;;;;4860324;29;20060;-74
2023/04/15 04:15:07;;;;;;;1999.90;999.90;;;6.70;99.90;;;;;;4860873;29;20135;-75
2023/04/15 04:17:33;;;;;;;1999.90;999.90;;;3.90;99.90;;;;;;4859473;29;20041;-74
2023/04/15 04:19:58;;;;;;;1999.90;999.90;;;4.00;99.90;;;;;;4843973;29;20136;-74
2023/04/15 04:22:24;;;;;;;1999.90;999.90;;;3.50;99.90;;;;;;4870705;29;20411;-77
2023/04/15 04:24:50;;;;;;;1999.90;999.90;;;;;;;;;;4858800;29;20091;-75
2023/04/15 04:27:16;;;;;;;1999.90;999.90;;;3.80;99.90;;;;;;4861447;29;20056;-75
2023/04/15 04:29:42;;;;;;;1999.90;999.90;;;4.10;99.90;;;;;;4862490;29;20053;-75
2023/04/15 04:32:08;;;;;;;1999.90;999.90;;;3.80;99.90;;;;;;4856859;29;20380;-75
2023/04/15 04:34:33;;;;;;;1999.90;999.90;;;3.40;99.90;;;;;;4861385;29;20053;-75
2023/04/15 04:36:59;;;;;;;1999.90;999.90;;;6.10;99.90;;;;;;4841361;29;20045;-75
2023/04/15 04:39:25;;;;;;;1999.90;999.90;;;3.80;99.90;;;;;;4844829;29;20056;-80
2023/04/15 04:41:53;;;;;;;1999.90;999.90;;;3.70;99.90;;;;;;4858686;29;20071;-75
2023/04/15 04:44:19;;;;;;;1999.90;999.90;;;5.00;99.90;;;;;;4875678;29;20486;-75
2023/04/15 04:46:45;;;;;;;1999.90;999.90;;;3.80;99.90;;;;;;4858007;29;20048;-75
2023/04/15 04:49:11;;;;;;;1999.90;999.90;;;6.00;99.90;;;;;;4841381;29;20067;-75
2023/04/15 04:51:37;;;;;;;1999.90;999.90;;;3.00;99.90;;;;;;4843129;29;20091;-76
2023/04/15 04:54:03;;;;;;;1999.90;999.90;;;3.20;99.90;;;;;;4872259;29;20120;-75
2023/04/15 04:56:29;;;;;;;1999.90;999.90;;;2.60;99.90;;;;;;4874740;29;20048;-76
2023/04/15 04:58:55;;;;;;;1999.90;999.90;;;3.40;99.90;;;;;;4847242;29;20399;-74
2023/04/15 05:01:21;;;;;;;1999.90;999.90;;;6.20;99.90;;;;;;4861216;29;20056;-74
2023/04/15 05:03:47;;;;;;;1999.90;999.90;;;;;;;;;;4859832;29;20053;-74
2023/04/15 05:06:13;;;;;;;1999.90;999.90;;;;;;;;;;4863464;29;20439;-75
2023/04/15 05:08:40;;;;;;;1999.90;999.90;;;3.60;99.90;;;;;;4859756;29;20049;-74
2023/04/15 05:11:06;;;;;;;1999.90;999.90;;;5.70;99.90;;;;;;4862244;29;20483;-74
2023/04/15 05:13:32;;;;;;;1999.90;999.90;;;2.80;99.90;;;;;;4873446;29;20055;-74
2023/04/15 05:15:58;;;;;;;1999.90;999.90;;;3.60;99.90;;;;;;4877351;29;20057;-75
2023/04/15 05:18:24;;;;;;;1999.90;999.90;;;5.50;99.90;;;;;;4860665;29;20402;-75
2023/04/15 05:20:50;;;;;;;1999.90;999.90;;;4.20;99.90;;;;;;4851476;29;20669;-76
2023/04/15 05:23:16;;;;;;;1999.90;999.90;;;4.20;99.90;;;;;;4837948;29;20044;-75
2023/04/15 05:25:42;;;;;;;1999.90;999.90;;;3.70;99.90;;;;;;4859465;29;20127;-76
2023/04/15 05:28:08;;;;;;;1999.90;999.90;;;3.70;99.90;;;;;;4878019;29;20140;-76
2023/04/15 05:30:33;;;;;;;1999.90;999.90;;;2.60;99.90;;;;;;4855862;29;20140;-77
2023/04/15 05:32:59;;;;;;;1999.90;999.90;;;5.90;99.90;;;;;;4873754;29;20049;-78
2023/04/15 05:35:26;;;;;;;1999.90;999.90;;;;;;;;;;4838439;29;20050;-79
2023/04/15 05:37:51;;;;;;;1999.90;999.90;;;4.00;99.90;;;;;;4872953;29;20533;-78
2023/04/15 05:40:17;;;;;;;1999.90;999.90;;;5.30;99.90;;;;;;4867727;29;20049;-78
2023/04/15 05:42:43;;;;;;;1999.90;999.90;;;4.30;99.90;;;;;;4856012;29;20057;-79
2023/04/15 05:45:09;;;;;;;1999.90;999.90;;;4.50;99.90;;;;;;4840842;29;20109;-79
2023/04/15 05:47:36;;;;;;;1999.90;999.90;;;;;;;;;;4838975;29;20407;-79
2023/04/15 05:50:03;;;;;;;1999.90;999.90;;;;;;;;;;4865923;29;20128;-79
2023/04/15 05:52:30;;;;;;;1999.90;999.90;;;4.40;99.90;;;;;;4871327;29;20057;-79
2023/04/15 05:55:00;;;;;;;1999.90;999.90;;;4.60;99.90;;;;;;4874056;29;20045;-79
2023/04/15 05:57:27;;;;;;;1999.90;999.90;;;7.90;99.90;;;;;;4846495;29;20058;-79
2023/04/15 05:59:54;;;;;;;1999.90;999.90;;;4.90;99.90;;;;;;4875196;29;20338;-79
2023/04/15 06:02:21;;;;;;;1999.90;999.90;;;6.70;99.90;;;;;;4881044;29;20049;-79
2023/04/15 06:04:47;;;;;;;1999.90;999.90;;;3.70;99.90;;;;;;4850752;29;20049;-81
2023/04/15 06:07:14;;;;;;;1999.90;999.90;;;;;;;;;;4886631;29;20087;-79
2023/04/15 06:09:41;;;;;;;1999.90;999.90;;;5.10;99.90;;;;;;4839381;29;20046;-80
2023/04/15 06:12:11;;;;;;;1999.90;999.90;;;5.20;99.90;;;;;;4839009;29;20053;-79
2023/04/15 06:14:40;;;;;;;1893.63;565.58;;;5.30;99.90;;;;;;4836640;29;20048;-79
2023/04/15 06:17:06;;;;;;;1999.90;999.90;;;5.50;99.90;;;;;;4869372;29;20045;-79
2023/04/15 06:19:33;;;;;;;1999.90;999.90;;;5.80;99.90;;;;;;4870327;29;20049;-79
2023/04/15 06:22:00;;;;;;;1999.90;999.90;;;7.50;99.90;;;;;;4836721;29;20065;-79
2023/04/15 06:24:27;;;;;;;1999.90;999.90;;;6.10;99.90;;;;;;4854768;29;20057;-79
2023/04/15 06:26:53;;;;;;;1999.90;999.90;;;6.60;99.90;;;;;;4865821;29;20571;-79
2023/04/15 06:29:18;;;;;;;1999.90;999.90;;;6.30;99.90;;;;;;4837693;29;20049;-81
2023/04/15 06:31:46;;;;;;;1999.90;999.90;;;6.70;99.90;;;;;;4852484;29;20509;-79
2023/04/15 06:34:12;;;;;;;;;;;6.80;99.90;;;;;;4864913;29;20083;-80
2023/04/15 06:36:39;;;;;;;1999.90;999.90;;;8.60;93.60;;;;;;4854809;29;20368;-83
2023/04/15 06:39:05;;;;;;;1999.90;999.90;;;;;;;;;;4835290;29;20332;-78
2023/04/15 06:41:33;;;;;;;1999.90;999.90;;;7.30;13.90;;;;;;4851800;29;20053;-78
2023/04/15 06:44:00;;;;;;;1999.90;999.90;;;7.50;37.70;;;;;;4854746;29;20507;-79
2023/04/15 06:46:35;;;;;;;1938.40;548.80;;;7.60;74.70;;;;;;4855362;29;20076;-79
2023/04/15 06:49:11;;;;;;;1999.90;999.90;;;7.70;1.00;;;;;;4869320;29;20052;-78
2023/04/15 06:51:44;;;;;;;1689.47;535.13;;;;;;;;;;4873106;29;20063;-78
2023/04/15 06:54:11;;;;;;;1999.90;999.90;;;8.00;1.00;;;;;;4853410;29;20055;-78
2023/04/15 06:56:37;;;;;;;1999.90;999.90;;;7.90;1.00;;;;;;4854605;29;20045;-78
2023/04/15 06:59:03;;;;;;;1999.90;999.90;;;8.10;1.00;;;;;;4855254;29;20120;-78
2023/04/15 07:01:29;;;;;;;1892.68;771.50;;;8.10;1.00;;;;;;4859553;29;20087;-79
2023/04/15 07:03:55;;;;;;;1999.90;999.90;;;8.20;1.00;;;;;;4856776;29;20053;-78
2023/04/15 07:06:27;;;;;;;1999.90;999.90;;;;;;;;;;4860261;29;20131;-78
2023/04/15 07:08:54;;;;;;;1999.90;999.90;;;8.80;1.00;;;;;;4855113;29;20124;-77
2023/04/15 07:11:21;;;;;;;1999.90;999.90;;;8.50;1.00;;;;;;4869121;29;20055;-77
2023/04/15 07:13:47;;;;;;;1999.90;999.90;;;8.40;1.00;;;;;;4858187;29;20052;-78
2023/04/15 07:16:13;;;;;;;1999.90;142.55;;;9.20;1.00;;;;;;4857932;29;20056;-81
2023/04/15 07:18:39;;;;;;;1999.90;999.90;;;9.00;1.00;;;;;;4853942;29;20396;-77
2023/04/15 07:21:04;;;;;;;1582.28;99.90;;;9.20;1.00;;;;;;4857339;29;20064;-79
2023/04/15 07:23:30;;;;;;;1925.63;777.88;;;9.20;1.00;;;;;;4843970;29;20135;-78
2023/04/15 07:25:56;;;;;;;1847.38;772.65;;;8.80;1.00;;;;;;4855854;29;20049;-78
2023/04/15 07:28:22;;;;;;;1999.90;999.90;;;10.40;1.00;;;;;;4859474;29;20045;-78
2023/04/15 07:30:48;;;;;;;1999.90;567.30;;;9.00;1.00;;;;;;4859953;29;20467;-77
2023/04/15 07:33:13;;;;;;;1999.90;999.90;;;9.80;1.00;;;;;;4875166;29;20059;-78
2023/04/15 07:35:39;;;;;;;1794.60;330.00;;;10.00;1.00;;;;;;4891745;29;20045;-78
2023/04/15 07:38:13;;;;;;;1999.90;999.90;;;10.10;1.00;;;;;;4858306;29;20394;-77
2023/04/15 07:40:42;;;;;;;1786.80;770.75;;;10.30;99.90;;;;;;4876944;29;20057;-77
2023/04/15 07:43:08;;;;;;;1872.40;781.08;;;10.20;99.90;;;;;;4843033;29;20059;-77
2023/04/15 07:45:34;;;;;;;1999.90;999.90;;;10.50;99.90;;;;;;4858588;29;20059;-77
2023/04/15 07:48:01;;;;;;;1384.90;95.38;;;10.60;99.90;;;;;;4853457;29;20045;-78
2023/04/15 07:50:33;;;;;;;1823.50;342.10;;;10.70;99.90;;;;;;4860730;29;20060;-77
2023/04/15 07:53:02;;;;;;;1999.90;999.90;;;10.70;99.90;;;;;;4860189;29;20045;-78
2023/04/15 07:55:29;;;;;;;1999.90;999.90;;;10.80;99.90;;;;;;4854330;29;20061;-78
2023/04/15 07:57:56;;;;;;;1867.78;776.55;;;10.90;99.90;;;;;;4858123;29;20486;-78
2023/04/15 08:00:22;;;;;;;1653.07;586.17;;;11.00;99.90;;;;;;4874501;29;20049;-78
2023/04/15 08:02:48;;;;;;;1999.90;999.90;;;11.00;99.90;;;;;;4872938;29;20044;-83
2023/04/15 08:05:14;;;;;;;1999.90;999.90;;;11.10;99.90;;;;;;4875945;29;20052;-79
2023/04/15 08:07:40;;;;;;;1999.90;999.90;;;11.20;99.90;;;;;;4858541;29;20131;-80
2023/04/15 08:10:07;;;;;;;1454.32;536.47;;;11.20;99.90;;;;;;4853929;29;20144;-78
2023/04/15 08:12:33;;;;;;;1723.95;766.35;;;11.30;99.90;;;;;;4843957;29;20081;-77
2023/04/15 08:15:01;;;;;;;1365.90;116.53;;;11.50;99.90;;;;;;4821130;29;20148;-79
2023/04/15 08:17:28;;;;;;;1713.88;767.53;;;11.70;99.90;;;;;;4857770;29;20053;-77
2023/04/15 08:19:54;;;;;;;1999.90;999.90;;;12.00;99.90;;;;;;4851920;29;20045;-79
2023/04/15 08:22:20;;;;;;;1999.90;999.90;;;12.10;99.90;;;;;;4843796;29;20048;-77
2023/04/15 08:24:46;;;;;;;1999.90;999.90;;;12.10;99.90;;;;;;4871807;29;20052;-80
2023/04/15 08:27:12;;;;;;;1999.90;999.90;;;13.30;99.90;;;;;;4842173;29;20056;-83
2023/04/15 08:29:38;;;;;;;1999.90;999.90;;;11.80;99.90;;;;;;4856509;29;20494;-78
2023/04/15 08:32:06;;;;;;;1999.90;999.90;;;11.70;99.90;;;;;;4852149;29;20052;-78
2023/04/15 08:34:32;;;;;;;1999.90;999.90;;;11.50;99.90;;;;;;4872036;29;20077;-78
2023/04/15 08:37:01;;;;;;;1999.90;999.90;;;11.30;99.90;;;;;;4852150;29;20132;-80
2023/04/15 08:39:27;;;;;;;1999.90;999.90;;;11.20;99.90;;;;;;4857072;29;20124;-78
2023/04/15 08:42:06;;;;;;;1999.90;999.90;;;11.10;99.90;;;;;;4837011;29;20044;-78
2023/04/15 08:44:37;;;;;;;1999.90;999.90;;;11.00;99.90;;;;;;4850219;29;20696;-77
2023/04/15 08:47:27;;;;;;;1999.90;999.90;;;11.00;99.90;;;;;;4868140;29;20503;-77
2023/04/15 08:49:58;;;;;;;1999.90;999.90;;;11.00;99.90;;;;;;4871826;29;20109;-77
2023/04/15 08:52:27;;;;;;;1999.90;999.90;;;11.00;99.90;;;;;;4841821;29;20515;-77
2023/04/15 08:55:00;;;;;;;1999.90;999.90;;;10.90;99.90;;;;;;4855336;29;20156;-78
2023/04/15 08:57:30;;;;;;;1999.90;999.90;;;10.90;99.90;;;;;;4858322;29;20117;-77
2023/04/15 09:00:02;;;;;;;1999.90;999.90;;;10.90;99.90;;;;;;4865861;29;20509;-77
2023/04/15 09:02:28;;;;;;;1999.90;999.90;;;10.80;99.90;;;;;;4871229;29;20053;-77
2023/04/15 09:04:55;;;;;;;1999.90;999.90;;;10.80;99.90;;;;;;4854315;29;20065;-77
2023/04/15 09:07:21;;;;;;;1999.90;999.90;;;10.80;99.90;;;;;;4853160;29;20097;-78
2023/04/15 09:09:47;;;;;;;1999.90;999.90;;;10.60;99.90;;;;;;4856796;29;20048;-80
2023/04/15 09:12:16;;;;;;;1999.90;999.90;;;10.70;99.90;;;;;;4855652;29;20605;-77
2023/04/15 09:14:46;;;;;;;1999.90;999.90;;;10.70;99.90;;;;;;4870784;29;20049;-76
2023/04/15 09:17:11;;;;;;;1999.90;999.90;;;10.70;99.90;;;;;;4852450;29;20459;-77
2023/04/15 09:19:37;;;;;;;1999.90;999.90;;;;;;;;;;4859013;29;20553;-78
2023/04/15 09:22:05;;;;;;;1999.90;999.90;;;10.60;99.90;;;;;;4853691;29;20056;-80
2023/04/15 09:24:39;;;;;;;1999.90;999.90;;;10.70;99.90;;;;;;4844093;29;20068;-77
2023/04/15 09:27:08;;;;;;;1999.90;999.90;;;10.80;99.90;;;;;;4867633;29;20052;-80
2023/04/15 09:29:34;;;;;;;1999.90;999.90;;;10.90;99.90;;;;;;4853525;29;20404;-76
2023/04/15 09:32:13;;;;;;;1999.90;999.90;;;11.00;99.90;;;;;;4871516;29;20119;-77
2023/04/15 09:34:39;;;;;;;1999.90;999.90;;;11.20;99.90;;;;;;4859644;29;20068;-76
2023/04/15 09:37:05;;;;;;;1999.90;999.90;;;11.20;99.90;;;;;;4857766;29;20052;-75
2023/04/15 09:39:48;;;;;;;1999.90;999.90;;;11.30;99.90;;;;;;4857145;29;20044;-76
2023/04/15 09:42:16;;;;;;;1999.90;999.90;;;11.20;99.90;;;;;;4871273;29;20072;-75
2023/04/15 09:44:43;;;;;;;1999.90;999.90;;;11.20;99.90;;;;;;4840031;29;20061;-76
2023/04/15 09:47:08;;;;;;;1999.90;999.90;;;11.30;99.90;;;;;;4871071;29;20071;-77
2023/04/15 09:49:34;;;;;;;1999.90;999.90;;;11.40;99.90;;;;;;4856050;29;20398;-74
2023/04/15 09:52:01;;;;;;;1999.90;999.90;;;11.40;99.90;;;;;;4834443;29;20128;-77
2023/04/15 09:54:35;;;;;;;1999.90;999.90;;;11.50;99.90;;;;;;4864512;29;20052;-75
2023/04/15 09:57:06;;;;;;;1999.90;999.90;;;11.60;99.90;;;;;;4854438;29;20046;-75
2023/04/15 09:59:31;;;;;;;1999.90;999.90;;;11.70;99.90;;;;;;4868840;29;20128;-75
2023/04/15 10:01:57;;;;;;;1999.90;999.90;;;12.00;99.90;;;;;;4855440;29;20052;-75
2023/04/15 10:04:26;;;;;;;1999.90;999.90;;;11.80;99.90;;;;;;4872816;29;20490;-77
2023/04/15 10:06:52;;;;;;;1999.90;999.90;;;11.80;99.90;;;;;;4873837;29;20045;-76
2023/04/15 10:09:18;;;;;;;1999.90;999.90;;;11.50;99.90;;;;;;4835956;29;20053;-78
2023/04/15 10:11:46;;;;;;;1999.90;999.90;;;11.70;99.90;;;;;;4851662;29;20037;-76
2023/04/15 10:14:14;;;;;;;1999.90;999.90;;;11.80;99.90;;;;;;4873079;29;20474;-74
2023/04/15 10:16:43;;;;;;;1999.90;999.90;;;11.80;99.90;;;;;;4871923;29;20049;-74
2023/04/15 10:19:10;;;;;;;1999.90;999.90;;;11.80;99.90;;;;;;4877342;29;20046;-76
2023/04/15 10:21:37;;;;;;;1999.90;999.90;;;11.80;99.90;;;;;;4873578;29;20529;-74
2023/04/15 10:24:03;;;;;;;1999.90;999.90;;;11.70;99.90;;;;;;4872387;29;20475;-74
2023/04/15 10:26:30;;;;;;;1999.90;999.90;;;11.70;99.90;;;;;;4875592;29;20053;-75
2023/04/15 10:28:56;;;;;;;1999.90;999.90;;;11.80;99.90;;;;;;4875149;29;20045;-75
2023/04/15 10:31:22;;;;;;;1999.90;999.90;;;11.80;99.90;;;;;;4874039;29;20045;-75
2023/04/15 10:33:49;;;;;;;1999.90;999.90;;;11.80;99.90;;;;;;4862466;29;20092;-74
2023/04/15 10:36:15;;;;;;;1999.90;999.90;;;11.70;99.90;;;;;;4879750;29;20127;-74
2023/04/15 10:38:45;;;;;;;1999.90;999.90;;;11.70;99.90;;;;;;4860976;29;20064;-75
2023/04/15 10:41:28;;;;;;;1999.90;999.90;;;13.30;99.90;;;;;;4874026;29;20041;-74
2023/04/15 10:43:59;;;;;;;1999.90;999.90;;;11.80;99.90;;;;;;4875334;29;20049;-75
2023/04/15 10:46:37;;;;;;;1999.90;999.90;;;11.70;99.90;;;;;;4873427;29;20045;-75
2023/04/15 10:49:10;;;;;;;1999.90;999.90;;;11.70;99.90;;;;;;4874364;29;20402;-78
2023/04/15 10:51:51;;;;;;;1999.90;999.90;;;11.70;99.90;;;;;;4860949;29;20089;-75
2023/04/15 10:54:23;;;;;;;1999.90;999.90;;;11.80;99.90;;;;;;4869729;29;20518;-76
2023/04/15 10:57:06;;;;;;;1999.90;999.90;;;11.70;99.90;;;;;;4876407;29;20056;-75
2023/04/15 10:59:58;;;;;;;1999.90;999.90;;;11.60;99.90;;;;;;4876997;29;20052;-74
2023/04/15 11:03:07;;;;;;;1999.90;999.90;;;11.60;99.90;;;;;;4860580;29;20284;-75
2023/04/15 11:05:41;;;;;;;1999.90;999.90;;;11.60;99.90;;;;;;4863557;29;20115;-75
2023/04/15 11:08:12;;;;;;;1999.90;999.90;;;11.60;99.90;;;;;;4873406;29;20557;-75
2023/04/15 11:10:37;;;;;;;1999.90;999.90;;;11.70;99.90;;;;;;4874138;29;20048;-75
2023/04/15 11:13:13;;;;;;;1999.90;999.90;;;11.60;99.90;;;;;;4871766;29;20045;-74
2023/04/15 11:15:44;;;;;;;1999.90;999.90;;;11.60;99.90;;;;;;4874202;29;20080;-75
2023/04/15 11:18:40;;;;;;;1999.90;999.90;;;11.60;99.90;;;;;;4873107;29;20041;-75
2023/04/15 11:21:08;;;;;;;1999.90;999.90;;;11.60;99.90;;;;;;4848278;29;20062;-74
2023/04/15 11:23:46;;;;;;;1999.90;999.90;;;11.50;99.90;;;;;;4859564;29;20080;-75
2023/04/15 11:26:12;;;;;;;1999.90;999.90;;;11.50;99.90;;;;;;4858047;29;20053;-74
2023/04/15 11:28:43;;;;;;;1999.90;999.90;;;11.40;99.90;;;;;;4842229;29;20049;-74
2023/04/15 11:31:12;;;;;;;1999.90;999.90;;;11.40;99.90;;;;;;4870903;29;20091;-74
2023/04/15 11:34:04;;;;;;;1999.90;999.90;;;9.80;99.90;;;;;;4873604;29;20057;-75
2023/04/15 11:36:33;;;;;;;1999.90;999.90;;;11.40;99.90;;;;;;4853984;29;20075;-75
2023/04/15 11:38:59;;;;;;;1999.90;999.90;;;11.40;99.90;;;;;;4862010;29;20132;-76
2023/04/15 11:41:25;;;;;;;1999.90;999.90;;;11.40;99.90;;;;;;4858332;29;20513;-77
2023/04/15 11:43:51;;;;;;;1999.90;999.90;;;11.50;99.90;;;;;;4873019;29;20053;-75
2023/04/15 11:46:17;;;;;;;1999.90;999.90;;;11.20;99.90;;;;;;4867888;29;20064;-75
2023/04/15 11:48:45;;;;;;;1999.90;999.90;;;11.40;99.90;;;;;;4872205;29;20486;-75
2023/04/15 11:51:12;;;;;;;1999.90;999.90;;;11.40;99.90;;;;;;4872490;29;20053;-76
2023/04/15 11:53:42;;;;;;;1999.90;999.90;;;11.40;99.90;;;;;;4872339;29;20048;-75
2023/04/15 11:56:09;;;;;;;1999.90;999.90;;;11.50;99.90;;;;;;4856244;29;20064;-75
2023/04/15 11:58:37;;;;;;;;;;;11.60;99.90;;;;;;4851589;29;20061;-76
2023/04/15 12:01:03;;;;;;;1999.90;999.90;;;11.60;99.90;;;;;;4869723;29;19931;-75
2023/04/15 12:03:36;;;;;;;1999.90;999.90;;;11.60;99.90;;;;;;4860857;29;20037;-76
2023/04/15 12:06:15;;;;;;;1999.90;999.90;;;11.60;99.90;;;;;;4861793;29;20053;-73
2023/04/15 12:08:47;;;;;;;;;;;11.60;99.90;;;;;;4866488;29;20049;-74
2023/04/15 12:11:16;;;;;;;1999.90;999.90;;;11.60;99.90;;;;;;4864861;29;19931;-77
2023/04/15 12:13:55;;;;;;;1999.90;999.90;;;11.50;99.90;;;;;;4876458;29;20048;-74
2023/04/15 12:16:22;;;;;;;1999.90;999.90;;;11.50;99.90;;;;;;4875542;29;20542;-75